• Join FlightAware (Why Join?)
  • Login
  • US Flag 
04:39PM EDT


 

Airport Tracker/Info


-or-


 

Live Flight TrackerFlight Track Log ✈ PDT4477 ✈ 18-Aug-2013 ✈ KSBY - KCLT

Flight Track Log - Related Links

Times and Time Zones

All times are in EDT time to prevent confusion due to time zone crossing. See the PDT4477 flight status page for this flight to view local times or setup timezone preferences in your user account.

Time Position Orientation Groundspeed Altitude Reporting Facility
EDT Latitude Longitude Course Direction KTS MPH feet Rate Location/Type
11:55AM 38.3608 -75.5467 202° Southwest 145 167 1,200  Level Washington Center
11:56AM 38.3419 -75.5733 228° Southwest 187 215 1,900 1,140 Climbing Washington Center
11:57AM 38.1588 -75.5938 199° South  Level FlightAware Approximate
11:57AM 38.2983 -75.5917 198° South 175 201 3,100  Level Washington Center
11:58AM 38.0990 -75.6195 199° South  Level FlightAware Approximate
11:58AM 38.2461 -75.6181 202° Southwest 204 235 3,200  Level Washington Center
11:58AM 38.1981 -75.6367 197° South 200 230 4,500 1,140 Climbing Washington Center
11:59AM 38.0396 -75.6469 202° Southwest  Level FlightAware Approximate
11:59AM 38.1544 -75.6525 196° South 181 208 5,400  Level Washington Center
12:00PM 37.9808 -75.6763 202° Southwest  Level FlightAware Approximate
12:00PM 38.1083 -75.6736 200° South 181 208 6,500  Level Washington Center
12:01PM 38.0625 -75.6947 200° South 181 208 7,400 900 Climbing Washington Center
12:02PM 38.0292 -75.7342 223° Southwest 176 203 8,300 840 Climbing Washington Center
12:03PM 37.9894 -75.7708 216° Southwest 176 203 9,100 780 Climbing Washington Center
12:04PM 37.9519 -75.8131 222° Southwest 176 203 9,900 840 Climbing Washington Center
12:05PM 37.8997 -75.8550 212° Southwest 193 222 10,800 900 Climbing Washington Center
12:06PM 37.8744 -75.8892 227° Southwest 189 217 11,500 960 Climbing Washington Center
12:07PM 37.8347 -75.9258 216° Southwest 163 188 12,500 780 Climbing Washington Center
12:08PM 37.7992 -75.9597 217° Southwest 161 185 13,200 720 Climbing Washington Center
12:09PM 37.7617 -75.9964 218° Southwest 166 191 14,000 720 Climbing Washington Center
12:10PM 37.7239 -76.0328 217° Southwest 168 193 14,700 600 Climbing Washington Center
12:11PM 37.6819 -76.0797 222° Southwest 173 199 15,400 600 Climbing Washington Center
12:12PM 37.6506 -76.1058 213° Southwest 167 192 16,000 660 Climbing Washington Center
12:13PM 37.6131 -76.1450 220° Southwest 166 191 16,700 600 Climbing Washington Center
12:14PM 37.5711 -76.1814 215° Southwest 166 191 17,300 480 Climbing Washington Center
12:15PM 37.5333 -76.2178 217° Southwest 166 191 17,700 300 Climbing Washington Center
12:16PM 37.4956 -76.2542 217° Southwest 171 197 18,000 360 Climbing Washington Center
12:17PM 37.4578 -76.2903 217° Southwest 171 197 18,500 480 Climbing Washington Center
12:18PM 37.4222 -76.3292 221° Southwest 176 203 19,000 360 Climbing Washington Center
12:19PM 37.3864 -76.3631 217° Southwest 176 203 19,300 360 Climbing Washington Center
12:20PM 37.3467 -76.3992 216° Southwest 176 203 19,800 300 Climbing Washington Center
12:21PM 37.3089 -76.4353 217° Southwest 176 203 20,000 60 Climbing Washington Center
12:22PM 37.2689 -76.4767 219° Southwest 176 203 20,000  Level Washington Center
12:23PM 37.2247 -76.5203 218° Southwest 189 217 20,000  Level Washington Center
12:24PM 37.1764 -76.5642 216° Southwest 200 230 20,000  Level Washington Center
12:25PM 37.1303 -76.6106 219° Southwest 205 236 20,000  Level Washington Center
12:26PM 37.0839 -76.6567 218° Southwest 210 242 20,000  Level Washington Center
12:27PM 37.0375 -76.7031 219° Southwest 210 242 20,000  Level Washington Center
12:28PM 36.9872 -76.7464 215° Southwest 220 253 20,000  Level Washington Center
12:29PM 36.9408 -76.7950 220° Southwest 220 253 20,000  Level Washington Center
12:30PM 36.8922 -76.8411 217° Southwest 220 253 20,000  Level Washington Center
12:31PM 36.8458 -76.8869 218° Southwest 225 259 20,000  Level Washington Center
12:32PM 36.7994 -76.9331 219° Southwest 225 259 20,000  Level Washington Center
12:33PM 36.7511 -76.9786 217° Southwest 225 259 20,000  Level Washington Center
12:34PM 36.7044 -77.0272 220° Southwest 225 259 20,000  Level Washington Center
12:35PM 36.6767 -77.0914 242° Southwest 219 252 20,000  Level Washington Center
12:36PM 36.6444 -77.1606 240° Southwest 219 252 20,000  Level Washington Center
12:37PM 36.6164 -77.2247 241° Southwest 224 258 20,000  Level Washington Center
12:38PM 36.5864 -77.2889 240° Southwest 224 258 20,000  Level Washington Center
12:39PM 36.5561 -77.3528 239° Southwest 224 258 20,000  Level Washington Center
12:40PM 36.5261 -77.4167 240° Southwest 224 258 20,000  Level Washington Center
12:41PM 36.4958 -77.4806 239° Southwest 224 258 20,000  Level Washington Center
12:42PM 36.4678 -77.5394 239° Southwest 224 258 20,000  Level Washington Center
12:43PM 36.4375 -77.6031 239° Southwest 224 258 20,000  Level Washington Center
12:44PM 36.4092 -77.6694 242° Southwest 224 258 20,000  Level Washington Center
12:45PM 36.3789 -77.7333 240° Southwest 224 258 20,000  Level Washington Center
12:46PM 36.3464 -77.7994 239° Southwest 224 258 20,000  Level Washington Center
12:47PM 36.3161 -77.8656 240° Southwest 218 251 20,000 -360 Level Washington Center
12:48PM 36.2833 -77.9317 238° Southwest 223 257 19,300 -900 Descending Washington Center
12:49PM 36.2486 -78.0106 241° Southwest 240 276 18,200 -1,140 Descending Washington Center
12:50PM 36.2117 -78.0839 238° Southwest 258 297 17,100 -1,200 Descending Washington Center
12:51PM 36.1744 -78.1650 240° Southwest 267 307 15,900 -720 Descending Washington Center
12:52PM 36.1661 -78.2600 264° West 253 291 15,700 -60 Descending Washington Center
12:53PM 36.1603 -78.3319 264° West 247 284 15,800  Climbing Washington Center
12:54PM 36.1561 -78.4167 267° West 235 270 15,700 120 Descending Washington Center
12:55PM 36.1503 -78.4858 264° West 230 265 16,100 120 Climbing Washington Center
12:56PM 36.1442 -78.5706 265° West 230 265 16,000  Descending Washington Center
12:57PM 36.1403 -78.6372 266° West 230 265 16,100  Climbing Washington Center
12:58PM 36.1364 -78.7039 266° West 230 265 16,100 -300 Level Washington Center
12:59PM 36.1319 -78.7964 267° West 230 265 15,600 -720 Descending Washington Center
01:00PM 36.1256 -78.8811 265° West 237 273 14,700 -960 Descending Washington Center
01:01PM 36.1189 -78.9681 265° West 242 278 13,800 -900 Descending Washington Center
01:02PM 36.1144 -79.0528 266° West 252 290 13,000 -180 Descending Washington Center
01:05PM 36.0998 -79.2015 263° West  Level FlightAware Approximate
01:07PM 36.0875 -79.3858 264° West 219 252 13,000  Level Washington Center
01:09PM 36.0759 -79.5129 264° West  Level FlightAware Approximate
01:12PM 36.0551 -79.7105 264° West  Level FlightAware Approximate
01:16PM 36.0145 -79.9942 230° Southwest  Level FlightAware Approximate
01:17PM 35.9763 -80.0499 230° Southwest  Level FlightAware Approximate
01:17PM 35.9200 -80.0978 230° Southwest 234 269 9,800  Level Atlanta Center
01:18PM 35.9381 -80.1055 230° Southwest  Level FlightAware Approximate
01:18PM 35.8789 -80.1894 241° Southwest 241 277 8,600  Level Atlanta Center
01:19PM 35.8998 -80.1611 230° Southwest  Level FlightAware Approximate
01:19PM 35.8442 -80.2731 243° Southwest 244 281 7,600  Level Atlanta Center
01:20PM 35.8616 -80.2166 230° Southwest  Level FlightAware Approximate
01:20PM 35.8108 -80.3489 242° Southwest 241 277 6,700  Level Atlanta Center
01:21PM 35.7794 -80.4142 239° Southwest 239 275 6,000 -360 Descending Atlanta Center
01:22PM 35.7461 -80.4822 239° Southwest 235 270 6,000  Level Atlanta Center
01:23PM 35.7128 -80.5578 241° Southwest 231 266 6,000  Level Atlanta Center
01:24PM 35.6833 -80.6256 242° Southwest 231 266 6,000  Level Atlanta Center
01:25PM 35.6519 -80.6958 241° Southwest 232 267 6,000  Level Atlanta Center
01:26PM 35.6494 -80.7650 267° West 203 234 6,000 -420 Level Atlanta Center
01:27PM 35.6469 -80.8289 267° West 172 198 5,300 -780 Descending Atlanta Center
01:28PM 35.6425 -80.8906 265° West 172 198 4,500 -660 Descending Atlanta Center
01:29PM 35.6289 -80.9369 250° West 165 190 4,000 -300 Descending Atlanta Center
01:30PM 35.5836 -80.9592 202° Southwest 177 204 4,000  Level Atlanta Center
01:31PM 35.5317 -80.9636 184° South 178 205 4,000  Level Atlanta Center
01:32PM 35.4814 -80.9606 177° South 183 211 4,000  Level Atlanta Center
01:33PM 35.4272 -80.9572 177° South 183 211 4,000 -180 Level Atlanta Center
01:34PM 35.3728 -80.9517 175° South 177 204 3,700 -660 Descending Atlanta Center
01:35PM 35.3247 -80.9483 177° South 181 208 2,700 -900 Descending Atlanta Center
01:37PM 35.2472 -80.9411 176° South 126 145 1,200 -780 Descending Atlanta Center